KDAB/DAB METAR and TAF weather

Enter ICAO airport designator
Station Type Date Time Source
KDAB METAR 2021/05/11 22:53 UTC NOAA

KDAB 112253Z 01003KT 4SM RA BR FEW040 FEW070 OVC150 24/22 A3005 RMK AO2 RAB21 TSE49 SLP176 TS DSIPTD P0003 T02390217


Station Type Date Time Source
KDAB Decoded METAR 2021/05/11 22:53 UTC NOAA

DAYTONA BEACH INTERNATIONAL, FL, United States (KDAB) 29-10N 81-04W 9M
May 11, 2021 - 06:53 PM EDT / 2021.05.11 2253 UTC
Wind: from the N (010 degrees) at 3 MPH (3 KT):0
Visibility: 4 mile(s):0
Sky conditions: overcast
Weather: rain; mist
Precipitation last hour: 0.03 inches
Temperature: 75.0 F (23.9 C)
Dew Point: 71.1 F (21.7 C)
Relative Humidity: 87%
Pressure (altimeter): 30.05 in. Hg (1017 hPa)
ob: KDAB 112253Z 01003KT 4SM RA BR FEW040 FEW070 OVC150 24/22 A3005 RMK AO2 RAB21 TSE49 SLP176 TS DSIPTD P0003 T02390217
cycle: 23

Station Type Date Time Source
KDAB TAF 2021/05/11 22:20 UTC NOAA

TAF
AMD KDAB 112216Z 1122/1218 VRB04KT P6SM -TSRA SCT040CB OVC130
TEMPO 1122/1124 3SM SHRA BKN080
FM120000 00000KT P6SM FEW100 BKN250
FM121400 25008KT P6SM SCT040 BKN200

Example: see airport list